Time;durP1;ratioP1;P1;durP2;ratioP2;P2;SDS_P1;SDS_P2;PMS_P1;PMS_P2;Temp;Humidity;BMP_temperature;BMP_pressure;BME280_temperature;BME280_humidity;BME280_pressure;Samples;Min_cycle;Max_cycle;Signal;HPM_P1;HPM_P2
2021/12/27 05:00:48;;;;;;;11.47;8.93;;;7.60;99.90;;;;;;5810914;23;20496;-75
2021/12/27 05:03:15;;;;;;;12.53;8.70;;;7.60;99.90;;;;;;4978033;29;20433;-75
2021/12/27 05:05:44;;;;;;;9.67;7.90;;;7.60;99.90;;;;;;4977868;28;20433;-76
2021/12/27 05:08:11;;;;;;;12.73;8.00;;;7.60;99.90;;;;;;4976324;28;20452;-75
2021/12/27 05:10:39;;;;;;;16.13;10.10;;;7.60;99.90;;;;;;4977981;28;20474;-76
2021/12/27 05:13:06;;;;;;;10.37;8.00;;;7.60;99.90;;;;;;4982063;28;20504;-75
2021/12/27 05:15:33;;;;;;;12.93;9.67;;;7.60;99.90;;;;;;4979844;28;20436;-75
2021/12/27 05:18:01;;;;;;;13.23;8.17;;;7.60;99.90;;;;;;4958924;29;20535;-75
2021/12/27 05:20:28;;;;;;;13.23;10.10;;;7.60;99.90;;;;;;4957202;28;20452;-74
2021/12/27 05:22:55;;;;;;;11.87;9.50;;;7.60;99.90;;;;;;4957557;29;20819;-75
2021/12/27 05:25:22;;;;;;;13.53;9.90;;;7.70;99.90;;;;;;4957533;29;20540;-75
2021/12/27 05:27:49;;;;;;;10.17;8.17;;;7.70;99.90;;;;;;4957429;29;20449;-75
2021/12/27 05:30:16;;;;;;;10.10;8.20;;;7.60;99.90;;;;;;4957296;28;20522;-75
2021/12/27 05:32:44;;;;;;;11.33;9.10;;;7.60;99.90;;;;;;4957140;29;20948;-75
2021/12/27 05:35:13;;;;;;;13.00;9.30;;;7.60;99.90;;;;;;4957007;29;20460;-75
2021/12/27 05:37:41;;;;;;;14.30;9.50;;;7.60;99.90;;;;;;4956959;29;20461;-75
2021/12/27 05:40:11;;;;;;;10.53;7.97;;;7.60;99.90;;;;;;4956542;29;20449;-75
2021/12/27 05:42:38;;;;;;;12.30;8.77;;;7.60;99.90;;;;;;4956985;28;20879;-75
2021/12/27 05:45:07;;;;;;;11.17;8.80;;;7.60;99.90;;;;;;4956653;29;20945;-75
2021/12/27 05:47:35;;;;;;;11.33;8.07;;;7.60;99.90;;;;;;4956798;29;20535;-74
2021/12/27 05:50:02;;;;;;;12.67;9.40;;;7.60;99.90;;;;;;4956596;29;20552;-74
2021/12/27 05:52:30;;;;;;;11.07;8.60;;;7.60;99.90;;;;;;4956330;28;20579;-75
2021/12/27 05:54:57;;;;;;;10.77;8.20;;;7.60;99.90;;;;;;4956835;29;20453;-74
2021/12/27 05:57:24;;;;;;;11.70;9.10;;;7.60;99.90;;;;;;4956699;29;20539;-75
2021/12/27 05:59:51;;;;;;;10.90;8.13;;;7.60;99.90;;;;;;4956503;28;20539;-75
2021/12/27 06:02:18;;;;;;;12.93;9.37;;;7.60;99.90;;;;;;4956219;28;20575;-73
2021/12/27 06:04:45;;;;;;;12.77;9.23;;;7.60;99.90;;;;;;4956509;28;20889;-73
2021/12/27 06:07:12;;;;;;;11.03;8.30;;;7.60;99.90;;;;;;4956329;29;20536;-73
2021/12/27 06:09:40;;;;;;;13.40;9.73;;;7.60;99.90;;;;;;4956293;29;20545;-73
2021/12/27 06:12:08;;;;;;;19.13;12.77;;;7.60;99.90;;;;;;4956147;28;20587;-73
2021/12/27 06:14:35;;;;;;;20.23;13.60;;;7.60;99.90;;;;;;4956230;29;20949;-73
2021/12/27 06:17:02;;;;;;;17.83;13.07;;;7.60;99.90;;;;;;4956316;29;20484;-73
2021/12/27 06:19:29;;;;;;;19.30;13.13;;;7.60;99.90;;;;;;4955884;29;20540;-73
2021/12/27 06:21:56;;;;;;;19.60;13.27;;;7.60;99.90;;;;;;4955570;28;20556;-73
2021/12/27 06:24:23;;;;;;;15.03;11.50;;;7.60;99.90;;;;;;4956108;29;20906;-73
2021/12/27 06:26:51;;;;;;;13.73;9.33;;;7.60;99.90;;;;;;4956049;29;20574;-73
2021/12/27 06:29:18;;;;;;;11.47;9.00;;;7.60;99.90;;;;;;4956123;29;20585;-73
2021/12/27 06:31:45;;;;;;;29.30;17.27;;;7.60;99.90;;;;;;4955910;28;20596;-73
2021/12/27 06:34:13;;;;;;;24.27;17.03;;;7.60;99.90;;;;;;4955794;29;20544;-72
2021/12/27 06:36:40;;;;;;;34.40;19.60;;;7.60;99.90;;;;;;4956052;29;20468;-72
2021/12/27 06:39:08;;;;;;;24.57;17.00;;;7.50;99.90;;;;;;4955647;29;20449;-73
2021/12/27 06:41:35;;;;;;;24.17;15.80;;;7.50;99.90;;;;;;4955795;28;20472;-73
2021/12/27 06:44:05;;;;;;;23.20;14.40;;;7.60;99.90;;;;;;4955720;29;20548;-72
2021/12/27 06:46:32;;;;;;;23.40;14.97;;;7.50;99.90;;;;;;4955259;29;20461;-73
2021/12/27 06:48:59;;;;;;;21.27;14.87;;;7.50;99.90;;;;;;4954078;29;20492;-74
2021/12/27 06:51:26;;;;;;;25.93;16.30;;;7.50;99.90;;;;;;4954578;28;20551;-74
2021/12/27 06:53:53;;;;;;;23.43;15.03;;;7.50;99.90;;;;;;4955800;29;20449;-74
2021/12/27 06:56:20;;;;;;;19.83;11.90;;;7.50;99.90;;;;;;4955478;28;20535;-74
2021/12/27 06:58:46;;;;;;;15.97;11.30;;;7.50;99.90;;;;;;4955697;29;20559;-75
2021/12/27 07:01:15;;;;;;;20.43;10.10;;;7.50;99.90;;;;;;4955131;28;20575;-74
2021/12/27 07:03:42;;;;;;;12.97;8.63;;;7.40;99.90;;;;;;4955324;29;20539;-74
2021/12/27 07:06:08;;;;;;;12.93;8.80;;;7.40;99.90;;;;;;4955377;29;20539;-74
2021/12/27 07:08:35;;;;;;;17.73;12.10;;;7.40;99.90;;;;;;4954872;29;21005;-74
2021/12/27 07:11:02;;;;;;;15.83;11.30;;;7.40;99.90;;;;;;4954949;28;21065;-74
2021/12/27 07:13:29;;;;;;;15.13;11.40;;;7.30;99.90;;;;;;4954981;29;20580;-74
2021/12/27 07:15:56;;;;;;;18.50;9.93;;;7.30;99.90;;;;;;4955081;29;20535;-74
2021/12/27 07:18:24;;;;;;;18.53;9.20;;;7.30;99.90;;;;;;4955337;28;20456;-74
2021/12/27 07:20:52;;;;;;;12.30;9.13;;;7.20;99.90;;;;;;4954909;28;20977;-74
2021/12/27 07:23:19;;;;;;;18.43;9.10;;;7.20;99.90;;;;;;4954938;28;20457;-74
2021/12/27 07:25:46;;;;;;;12.70;8.30;;;7.20;99.90;;;;;;4955080;28;20552;-74
2021/12/27 07:28:13;;;;;;;13.50;8.27;;;7.10;99.90;;;;;;4954667;28;20531;-74
2021/12/27 07:30:40;;;;;;;12.23;8.30;;;7.10;99.90;;;;;;4954530;28;21084;-74
2021/12/27 07:33:07;;;;;;;9.43;6.77;;;7.10;99.90;;;;;;4954853;28;20576;-74
2021/12/27 07:35:36;;;;;;;12.07;9.00;;;7.00;99.90;;;;;;4953882;29;20453;-74
2021/12/27 07:38:04;;;;;;;12.17;9.53;;;7.00;99.90;;;;;;4954729;29;20544;-74
2021/12/27 07:40:31;;;;;;;13.87;9.13;;;7.00;99.90;;;;;;4954372;28;20455;-74
2021/12/27 07:42:58;;;;;;;11.30;8.50;;;6.90;99.90;;;;;;4954470;29;20820;-74
2021/12/27 07:45:25;;;;;;;10.37;8.10;;;6.90;99.90;;;;;;4954680;29;20463;-74
2021/12/27 07:47:52;;;;;;;11.63;9.00;;;6.90;99.90;;;;;;4954409;29;20453;-74
2021/12/27 07:50:19;;;;;;;13.80;10.20;;;6.90;99.90;;;;;;4954366;28;20539;-73
2021/12/27 07:52:47;;;;;;;14.40;9.23;;;6.80;99.90;;;;;;4954450;29;20925;-74
2021/12/27 07:55:14;;;;;;;10.60;8.43;;;6.80;99.90;;;;;;4954484;29;20544;-74
2021/12/27 07:57:41;;;;;;;13.00;8.87;;;6.70;99.90;;;;;;4952965;29;20911;-74
2021/12/27 08:00:10;;;;;;;14.10;9.70;;;6.70;99.90;;;;;;4935190;29;20536;-74
2021/12/27 08:02:37;;;;;;;13.50;10.60;;;6.70;99.90;;;;;;4935171;29;20524;-74
2021/12/27 08:05:05;;;;;;;14.13;10.70;;;6.60;99.90;;;;;;4935149;29;20950;-74
2021/12/27 08:07:32;;;;;;;16.67;12.13;;;6.60;99.90;;;;;;4934868;29;20970;-74
2021/12/27 08:10:00;;;;;;;10.50;9.10;;;6.60;99.90;;;;;;4934645;29;20847;-74
2021/12/27 08:12:27;;;;;;;17.50;13.07;;;6.60;99.90;;;;;;4934479;29;20592;-74
2021/12/27 08:14:54;;;;;;;13.13;10.80;;;6.50;99.90;;;;;;4934962;29;20544;-75
2021/12/27 08:17:22;;;;;;;17.90;11.90;;;6.50;99.90;;;;;;4934977;29;20958;-75
2021/12/27 08:19:49;;;;;;;21.07;12.70;;;6.50;99.90;;;;;;4934400;29;20458;-75
2021/12/27 08:22:16;;;;;;;14.30;10.47;;;6.50;99.90;;;;;;4935146;29;20552;-69
2021/12/27 08:24:43;;;;;;;11.90;8.73;;;6.50;99.90;;;;;;4934777;29;20453;-73
2021/12/27 08:27:11;;;;;;;12.83;9.60;;;6.50;99.90;;;;;;4934938;29;20464;-73
2021/12/27 08:29:38;;;;;;;15.40;11.47;;;6.50;99.90;;;;;;4934795;29;20546;-75
2021/12/27 08:32:06;;;;;;;16.40;12.90;;;6.50;99.90;;;;;;4934622;29;20556;-75
2021/12/27 08:34:33;;;;;;;18.50;11.30;;;6.50;99.90;;;;;;4934660;29;20544;-76
2021/12/27 08:37:00;;;;;;;19.40;12.40;;;6.50;99.90;;;;;;4934624;29;20496;-75
2021/12/27 08:39:27;;;;;;;15.17;12.03;;;6.60;99.90;;;;;;4934186;29;20993;-75
2021/12/27 08:41:54;;;;;;;15.20;10.90;;;6.60;99.90;;;;;;4934880;29;20553;-75
2021/12/27 08:44:22;;;;;;;21.33;12.60;;;6.60;99.90;;;;;;4934831;29;20540;-75
2021/12/27 08:46:49;;;;;;;13.67;10.23;;;6.60;99.90;;;;;;4937947;29;20453;-75
2021/12/27 08:49:16;;;;;;;18.70;11.37;;;6.60;99.90;;;;;;4938319;29;20540;-73
2021/12/27 08:51:43;;;;;;;12.43;10.27;;;6.50;99.90;;;;;;4939038;29;20560;-75
2021/12/27 08:54:11;;;;;;;9.37;7.20;;;6.50;99.90;;;;;;4938832;29;20536;-75
2021/12/27 08:56:39;;;;;;;8.03;6.63;;;6.50;99.90;;;;;;4938811;29;20505;-76
2021/12/27 08:59:06;;;;;;;10.93;7.73;;;6.60;99.90;;;;;;4938619;29;20461;-75
2021/12/27 09:01:34;;;;;;;9.77;6.90;;;6.60;99.90;;;;;;4938425;29;20521;-75
2021/12/27 09:04:01;;;;;;;10.13;7.80;;;6.70;99.90;;;;;;4938096;29;20450;-75
2021/12/27 09:06:28;;;;;;;11.17;8.43;;;6.70;99.90;;;;;;4938644;29;20536;-75
2021/12/27 09:08:55;;;;;;;11.60;9.80;;;6.80;99.90;;;;;;4937904;29;20544;-75
2021/12/27 09:11:22;;;;;;;15.87;10.83;;;6.90;99.90;;;;;;4938162;29;21257;-75
2021/12/27 09:13:48;;;;;;;15.97;12.83;;;7.00;99.90;;;;;;4938397;29;20592;-75
2021/12/27 09:16:15;;;;;;;16.90;12.60;;;7.10;99.90;;;;;;4937104;29;20537;-75
2021/12/27 09:18:44;;;;;;;15.20;11.13;;;7.20;99.90;;;;;;4937677;29;20886;-75
2021/12/27 09:21:10;;;;;;;16.07;11.20;;;7.30;99.90;;;;;;4937733;29;20473;-75
2021/12/27 09:23:38;;;;;;;22.70;14.47;;;7.40;99.90;;;;;;4937922;29;20540;-75
2021/12/27 09:26:05;;;;;;;19.40;12.87;;;7.50;99.90;;;;;;4937888;29;20537;-75
2021/12/27 09:28:33;;;;;;;16.87;12.03;;;7.60;99.90;;;;;;4937762;29;20480;-74
2021/12/27 09:31:00;;;;;;;15.83;10.83;;;7.60;99.90;;;;;;4937747;29;20556;-75
2021/12/27 09:33:27;;;;;;;15.03;10.60;;;7.80;99.90;;;;;;4940006;29;20897;-75
2021/12/27 09:35:56;;;;;;;14.40;10.20;;;7.80;99.90;;;;;;4937914;29;20946;-75
2021/12/27 09:38:22;;;;;;;9.83;7.60;;;8.00;99.90;;;;;;4937873;29;20528;-75
2021/12/27 09:40:49;;;;;;;10.57;7.57;;;8.10;99.90;;;;;;4937398;29;20564;-75
2021/12/27 09:43:16;;;;;;;7.25;6.22;;;8.20;99.90;;;;;;4936915;29;20536;-75
2021/12/27 09:45:44;;;;;;;6.97;5.77;;;8.50;99.90;;;;;;4937994;29;20309;-75
2021/12/27 09:48:12;;;;;;;9.73;6.80;;;8.60;99.90;;;;;;4938203;29;20546;-75
2021/12/27 09:50:43;;;;;;;8.73;6.53;;;8.70;99.90;;;;;;4937486;29;20473;-75
2021/12/27 09:53:11;;;;;;;8.20;6.53;;;8.80;99.90;;;;;;4937802;29;20582;-75
2021/12/27 09:55:38;;;;;;;8.67;6.63;;;8.90;99.90;;;;;;4937433;29;20545;-75
2021/12/27 09:58:05;;;;;;;8.10;6.30;;;9.00;99.90;;;;;;4936394;29;20529;-75
2021/12/27 10:00:34;;;;;;;8.93;6.50;;;9.10;99.90;;;;;;4936771;29;20454;-75
2021/12/27 10:03:01;;;;;;;7.80;5.90;;;9.10;99.90;;;;;;4936626;29;20459;-74
2021/12/27 10:05:31;;;;;;;9.60;6.77;;;9.10;99.90;;;;;;4937186;29;20552;-76
2021/12/27 10:07:58;;;;;;;6.77;6.07;;;9.00;99.90;;;;;;4937173;29;20453;-75
2021/12/27 10:10:26;;;;;;;7.37;5.80;;;9.00;99.90;;;;;;4936894;29;20540;-75
2021/12/27 10:12:53;;;;;;;7.70;6.00;;;8.90;99.90;;;;;;4936936;29;20584;-75
2021/12/27 10:15:23;;;;;;;7.33;6.60;;;8.90;99.90;;;;;;4937266;29;20464;-75
2021/12/27 10:17:51;;;;;;;9.00;6.50;;;8.90;99.90;;;;;;4937283;29;20564;-75
2021/12/27 10:20:20;;;;;;;7.83;6.37;;;8.90;99.90;;;;;;4936804;29;20508;-75
2021/12/27 10:22:50;;;;;;;8.70;5.57;;;9.00;99.90;;;;;;4936841;29;21028;-75
2021/12/27 10:25:18;;;;;;;6.63;5.40;;;9.10;99.90;;;;;;4936771;29;20489;-75
2021/12/27 10:27:48;;;;;;;6.83;5.13;;;9.30;99.90;;;;;;4937028;29;20540;-75
2021/12/27 10:30:17;;;;;;;6.33;5.43;;;9.40;99.90;;;;;;4936642;29;20446;-75
2021/12/27 10:32:45;;;;;;;7.90;5.50;;;9.50;99.90;;;;;;4936729;29;20489;-75
2021/12/27 10:35:13;;;;;;;6.67;5.00;;;9.80;99.90;;;;;;4936774;29;20496;-75
2021/12/27 10:37:42;;;;;;;4.90;4.40;;;10.20;99.90;;;;;;4937002;29;20545;-75
2021/12/27 10:40:11;;;;;;;5.27;4.73;;;10.30;99.90;;;;;;4936603;29;20465;-75
2021/12/27 10:42:43;;;;;;;5.70;4.53;;;10.60;99.90;;;;;;4936746;29;20544;-75
2021/12/27 10:45:12;;;;;;;4.70;3.70;;;10.80;99.90;;;;;;4936687;29;20508;-75
2021/12/27 10:47:42;;;;;;;5.27;4.27;;;11.00;99.90;;;;;;4936390;29;20914;-75
2021/12/27 10:50:12;;;;;;;4.70;3.80;;;11.00;99.90;;;;;;4936315;29;20549;-75
2021/12/27 10:52:55;;;;;;;5.73;4.80;;;11.30;99.90;;;;;;4936296;29;20490;-75
2021/12/27 10:55:24;;;;;;;4.87;4.37;;;11.50;99.90;;;;;;4936407;29;20529;-75
2021/12/27 10:57:52;;;;;;;6.33;4.20;;;11.60;99.90;;;;;;4936177;29;20530;-75
2021/12/27 11:00:24;;;;;;;4.10;3.70;;;11.70;99.90;;;;;;4935824;29;20462;-75
2021/12/27 11:02:52;;;;;;;11.53;3.90;;;12.00;99.90;;;;;;4936092;29;20902;-75
2021/12/27 11:05:23;;;;;;;4.00;3.43;;;11.90;99.90;;;;;;4936362;29;20820;-75
2021/12/27 11:07:50;;;;;;;4.17;3.47;;;12.00;99.90;;;;;;4936094;29;20460;-75
2021/12/27 11:10:17;;;;;;;4.90;3.73;;;12.10;99.90;;;;;;4935779;29;20549;-75
2021/12/27 11:12:44;;;;;;;3.63;3.10;;;12.20;99.90;;;;;;4935973;29;20557;-75
2021/12/27 11:15:12;;;;;;;3.60;3.00;;;12.40;99.90;;;;;;4967111;23;21055;-75
2021/12/27 11:17:41;;;;;;;3.30;3.00;;;12.40;99.90;;;;;;4954904;29;20460;-75
2021/12/27 11:20:10;;;;;;;4.20;2.90;;;12.50;99.90;;;;;;4955048;29;20532;-75
2021/12/27 11:22:40;;;;;;;3.10;2.73;;;12.60;99.90;;;;;;4954781;29;20863;-75
2021/12/27 11:25:19;;;;;;;4.50;3.30;;;12.60;99.90;;;;;;4950197;29;20904;-76
2021/12/27 11:27:46;;;;;;;3.37;3.00;;;12.70;99.90;;;;;;4945643;29;20868;-76
2021/12/27 11:30:16;;;;;;;3.23;2.50;;;12.80;99.90;;;;;;4951670;29;20524;-76
2021/12/27 11:33:03;;;;;;;4.23;3.00;;;12.90;99.90;;;;;;4954941;28;20543;-75
2021/12/27 11:35:35;;;;;;;3.93;3.30;;;13.10;99.90;;;;;;4954779;29;20591;-76
2021/12/27 11:38:02;;;;;;;4.50;3.50;;;13.20;99.90;;;;;;4954696;28;20533;-75
2021/12/27 11:40:40;;;;;;;4.73;3.90;;;13.30;99.90;;;;;;4954249;28;20484;-75
2021/12/27 11:43:08;;;;;;;3.90;3.40;;;13.40;99.90;;;;;;4954714;28;20540;-75
2021/12/27 11:45:40;;;;;;;4.73;3.47;;;13.40;99.90;;;;;;4954489;28;20481;-75
2021/12/27 11:48:10;;;;;;;5.17;3.33;;;13.40;99.90;;;;;;4954406;28;20543;-76
2021/12/27 11:51:07;;;;;;;6.10;3.80;;;13.40;99.90;;;;;;4954295;29;20464;-75
2021/12/27 11:53:36;;;;;;;3.93;3.27;;;13.50;99.90;;;;;;4954104;29;20456;-75
2021/12/27 11:56:08;;;;;;;3.53;2.90;;;13.50;99.90;;;;;;4954275;28;20504;-67
2021/12/27 11:58:36;;;;;;;3.40;3.00;;;13.40;99.90;;;;;;4952924;28;20461;-67
2021/12/27 12:01:05;;;;;;;3.87;3.47;;;13.30;99.90;;;;;;4953012;28;20556;-67
2021/12/27 12:03:42;;;;;;;3.67;3.07;;;13.20;99.90;;;;;;4953258;28;20521;-76
2021/12/27 12:06:37;;;;;;;4.73;3.10;;;13.20;99.90;;;;;;4953362;28;20944;-76
2021/12/27 12:09:10;;;;;;;3.60;2.90;;;13.10;99.90;;;;;;4953323;29;20457;-76
2021/12/27 12:11:37;;;;;;;3.90;3.20;;;13.00;99.90;;;;;;4953382;28;20552;-76
2021/12/27 12:14:29;;;;;;;3.87;2.80;;;13.00;99.90;;;;;;4949582;28;20531;-76
2021/12/27 12:16:57;;;;;;;3.53;2.97;;;13.00;99.90;;;;;;4952389;29;20543;-75
2021/12/27 12:19:40;;;;;;;4.27;3.30;;;13.00;99.90;;;;;;4954020;28;20481;-75
2021/12/27 12:22:29;;;;;;;5.63;3.77;;;13.10;99.90;;;;;;4953607;28;20536;-75
2021/12/27 12:25:13;;;;;;;3.27;2.90;;;13.00;99.90;;;;;;4953927;28;20500;-75
2021/12/27 12:27:55;;;;;;;4.50;3.20;;;13.00;99.90;;;;;;4954152;28;20491;-75
2021/12/27 12:30:22;;;;;;;5.93;4.13;;;12.80;99.90;;;;;;4953554;28;20460;-75
2021/12/27 12:33:04;;;;;;;5.80;3.40;;;12.80;99.90;;;;;;4954263;28;20456;-75
2021/12/27 12:35:38;;;;;;;4.63;3.53;;;12.80;99.90;;;;;;4954204;28;21056;-75
2021/12/27 12:38:12;;;;;;;3.30;3.00;;;12.70;99.90;;;;;;4954087;28;20539;-75
2021/12/27 12:40:40;;;;;;;4.60;3.70;;;12.70;99.90;;;;;;4953718;28;20495;-75
2021/12/27 12:43:07;;;;;;;3.80;3.20;;;12.70;99.90;;;;;;4954056;28;20531;-75
2021/12/27 12:45:37;;;;;;;4.00;3.33;;;12.80;99.90;;;;;;4954043;28;20588;-75
2021/12/27 12:48:05;;;;;;;4.80;3.33;;;12.80;99.90;;;;;;4954139;28;20544;-75
2021/12/27 12:50:32;;;;;;;7.47;3.63;;;12.70;99.90;;;;;;4953742;28;20547;-75
2021/12/27 12:53:03;;;;;;;4.60;3.60;;;12.70;99.90;;;;;;4953895;28;20544;-75
2021/12/27 12:55:32;;;;;;;4.83;3.17;;;12.60;99.90;;;;;;4953661;28;20532;-75
2021/12/27 12:58:00;;;;;;;5.07;3.17;;;12.60;99.90;;;;;;4954269;28;20950;-75
2021/12/27 13:00:29;;;;;;;3.87;3.40;;;12.60;99.90;;;;;;4954204;28;20965;-76
2021/12/27 13:03:07;;;;;;;5.63;4.00;;;12.60;99.90;;;;;;4954219;28;20480;-75
2021/12/27 13:05:34;;;;;;;4.87;3.73;;;12.60;99.90;;;;;;4953941;28;20583;-75
2021/12/27 13:08:03;;;;;;;3.50;2.93;;;12.60;99.90;;;;;;4954039;28;20588;-75
2021/12/27 13:10:32;;;;;;;4.93;3.93;;;12.60;99.90;;;;;;4953805;28;20969;-75
2021/12/27 13:13:01;;;;;;;3.73;3.00;;;12.60;99.90;;;;;;4953611;28;20484;-75
2021/12/27 13:15:31;;;;;;;5.07;3.20;;;12.60;99.90;;;;;;4953492;28;20560;-75
2021/12/27 13:18:05;;;;;;;4.73;3.70;;;12.70;99.90;;;;;;4953915;28;20536;-75
2021/12/27 13:20:34;;;;;;;5.73;3.60;;;12.60;99.90;;;;;;4953706;28;20795;-75
2021/12/27 13:23:04;;;;;;;3.40;3.10;;;12.60;99.90;;;;;;4954129;28;20864;-75
2021/12/27 13:25:37;;;;;;;3.87;3.00;;;12.50;99.90;;;;;;4954452;28;20539;-75
2021/12/27 13:28:09;;;;;;;3.73;3.37;;;12.50;99.90;;;;;;4954075;28;20500;-75
2021/12/27 13:30:58;;;;;;;5.70;4.07;;;12.40;99.90;;;;;;4953100;28;20484;-75
2021/12/27 13:33:30;;;;;;;6.30;4.47;;;12.30;99.90;;;;;;4956988;28;21035;-75
2021/12/27 13:35:58;;;;;;;4.80;4.00;;;12.30;99.90;;;;;;4957079;28;20522;-75
2021/12/27 13:38:29;;;;;;;4.23;3.50;;;12.20;99.90;;;;;;4956996;28;20477;-75
2021/12/27 13:40:58;;;;;;;6.47;4.03;;;12.20;99.90;;;;;;4956791;28;20535;-75
2021/12/27 13:43:26;;;;;;;5.43;4.10;;;12.20;99.90;;;;;;4957157;28;20483;-75
2021/12/27 13:45:54;;;;;;;5.53;3.83;;;12.20;99.90;;;;;;4957517;28;20583;-75
2021/12/27 13:48:33;;;;;;;4.90;3.93;;;12.10;99.90;;;;;;4957775;29;20516;-75
2021/12/27 13:51:01;;;;;;;4.43;3.77;;;12.00;99.90;;;;;;4957486;28;20544;-75
2021/12/27 13:53:30;;;;;;;4.43;4.00;;;11.90;99.90;;;;;;4957498;29;20488;-75
2021/12/27 13:56:08;;;;;;;4.60;4.10;;;11.90;99.90;;;;;;4957147;28;20555;-75
2021/12/27 13:58:39;;;;;;;5.63;4.10;;;11.90;99.90;;;;;;4957286;28;20464;-75
2021/12/27 14:01:12;;;;;;;5.07;3.80;;;11.80;99.90;;;;;;4957136;28;20464;-75
2021/12/27 14:03:40;;;;;;;5.77;4.00;;;11.80;99.90;;;;;;4957663;28;20476;-75
2021/12/27 14:06:08;;;;;;;5.40;4.37;;;11.80;99.90;;;;;;4957120;28;20465;-75
2021/12/27 14:08:36;;;;;;;5.20;4.50;;;11.70;99.90;;;;;;4957125;29;20951;-75
2021/12/27 14:11:12;;;;;;;6.00;4.67;;;11.70;99.90;;;;;;4957240;28;20540;-75
2021/12/27 14:13:48;;;;;;;8.37;5.03;;;11.60;99.90;;;;;;4957314;28;20539;-75
2021/12/27 14:16:24;;;;;;;4.83;4.20;;;11.50;99.90;;;;;;4956581;28;20491;-75
2021/12/27 14:19:02;;;;;;;7.17;4.77;;;11.50;99.90;;;;;;4955641;28;20583;-75
2021/12/27 14:21:29;;;;;;;8.17;4.97;;;11.50;99.90;;;;;;4957034;28;20463;-75
2021/12/27 14:24:05;;;;;;;8.33;5.77;;;11.50;99.90;;;;;;4956805;29;20484;-75
2021/12/27 14:26:32;;;;;;;7.90;6.07;;;11.50;99.90;;;;;;4956760;28;20453;-76
2021/12/27 14:29:16;;;;;;;9.73;6.17;;;11.40;99.90;;;;;;4956266;28;20495;-75
2021/12/27 14:31:47;;;;;;;11.40;5.60;;;11.40;99.90;;;;;;4957931;28;20555;-75
2021/12/27 14:34:14;;;;;;;9.33;5.77;;;11.30;99.90;;;;;;4958143;28;20448;-75
2021/12/27 14:36:47;;;;;;;7.13;5.80;;;11.30;99.90;;;;;;4944315;29;21072;-75
2021/12/27 14:39:15;;;;;;;10.67;6.50;;;11.20;99.90;;;;;;4946701;29;20437;-75
2021/12/27 14:41:42;;;;;;;8.13;5.50;;;11.10;99.90;;;;;;4950111;28;20957;-75
2021/12/27 14:44:09;;;;;;;8.17;6.23;;;11.10;99.90;;;;;;4955491;28;20540;-75
2021/12/27 14:46:38;;;;;;;9.57;6.30;;;11.10;99.90;;;;;;4956200;28;20508;-76
2021/12/27 14:49:05;;;;;;;9.63;6.60;;;11.00;99.90;;;;;;4955751;28;21129;-76
2021/12/27 14:51:32;;;;;;;10.70;6.40;;;11.00;99.90;;;;;;4955837;28;20581;-76
2021/12/27 14:53:59;;;;;;;9.17;6.30;;;11.00;99.90;;;;;;4955490;28;20491;-76
2021/12/27 14:56:28;;;;;;;10.70;6.93;;;11.00;99.90;;;;;;4955236;28;20853;-76
2021/12/27 14:58:55;;;;;;;12.17;6.70;;;11.00;99.90;;;;;;4955055;28;20830;-76
2021/12/27 15:01:23;;;;;;;14.30;7.47;;;10.90;99.90;;;;;;4955947;28;20489;-76
2021/12/27 15:03:50;;;;;;;12.97;7.57;;;10.90;99.90;;;;;;4955723;29;20504;-76
2021/12/27 15:06:18;;;;;;;12.70;7.07;;;10.90;99.90;;;;;;4955427;28;20539;-76
2021/12/27 15:08:45;;;;;;;15.87;7.73;;;10.90;99.90;;;;;;4955034;29;20885;-76
2021/12/27 15:11:12;;;;;;;11.67;8.10;;;10.80;99.90;;;;;;4955064;28;20463;-76
2021/12/27 15:13:40;;;;;;;12.77;8.17;;;10.80;99.90;;;;;;4955500;28;20455;-76
2021/12/27 15:16:07;;;;;;;13.77;8.37;;;10.80;99.90;;;;;;4955117;29;20535;-76
2021/12/27 15:18:35;;;;;;;14.57;8.73;;;10.70;99.90;;;;;;4955546;28;20544;-76
2021/12/27 15:21:02;;;;;;;14.80;8.10;;;10.70;99.90;;;;;;4955443;28;20457;-75
2021/12/27 15:23:30;;;;;;;16.23;8.73;;;10.70;99.90;;;;;;4955156;29;20484;-76
2021/12/27 15:25:57;;;;;;;16.33;10.00;;;10.70;99.90;;;;;;4954886;28;20501;-76
2021/12/27 15:28:24;;;;;;;20.10;11.90;;;10.70;99.90;;;;;;4954269;29;20521;-75
2021/12/27 15:30:55;;;;;;;24.77;15.40;;;10.60;99.90;;;;;;4953761;29;20992;-76
2021/12/27 15:33:22;;;;;;;16.43;11.50;;;10.60;99.90;;;;;;4954616;29;20523;-76
2021/12/27 15:35:49;;;;;;;15.57;10.40;;;10.60;99.90;;;;;;4954756;28;20576;-76
2021/12/27 15:38:16;;;;;;;17.60;10.00;;;10.50;99.90;;;;;;4954724;28;20489;-76
2021/12/27 15:40:43;;;;;;;14.20;9.40;;;10.50;99.90;;;;;;4952651;28;20460;-76
2021/12/27 15:43:10;;;;;;;19.97;11.83;;;10.40;99.90;;;;;;4951117;28;20911;-75
2021/12/27 15:45:36;;;;;;;21.80;12.40;;;10.40;99.90;;;;;;4943412;28;20505;-76
2021/12/27 15:48:08;;;;;;;18.80;11.00;;;10.40;99.90;;;;;;4944929;29;20494;-75
2021/12/27 15:50:35;;;;;;;19.37;10.50;;;10.30;99.90;;;;;;4935346;29;20532;-76
2021/12/27 15:53:02;;;;;;;19.70;12.80;;;10.30;99.90;;;;;;4935357;29;20544;-75
2021/12/27 15:55:29;;;;;;;20.77;12.30;;;10.30;99.90;;;;;;4934474;29;20505;-75
2021/12/27 15:57:56;;;;;;;18.23;11.07;;;10.20;99.90;;;;;;4935290;29;20496;-76
2021/12/27 16:00:25;;;;;;;15.60;10.37;;;10.20;99.90;;;;;;4934928;29;20461;-75
2021/12/27 16:02:52;;;;;;;19.47;11.73;;;10.20;99.90;;;;;;4939938;29;21157;-75
2021/12/27 16:05:21;;;;;;;24.70;13.23;;;10.20;99.90;;;;;;4954467;28;20496;-75
2021/12/27 16:07:52;;;;;;;17.03;11.23;;;10.10;99.90;;;;;;4953366;29;20543;-74
2021/12/27 16:10:20;;;;;;;19.40;10.60;;;10.10;99.90;;;;;;4953502;29;20460;-74
2021/12/27 16:12:47;;;;;;;20.87;11.10;;;10.10;99.90;;;;;;4954129;29;20452;-74
2021/12/27 16:15:14;;;;;;;15.60;9.67;;;10.00;99.90;;;;;;4953898;29;20504;-75
2021/12/27 16:17:41;;;;;;;16.80;10.00;;;10.00;99.90;;;;;;4953993;29;20547;-75
2021/12/27 16:20:09;;;;;;;15.27;9.80;;;10.00;99.90;;;;;;4954019;29;20457;-75
2021/12/27 16:22:38;;;;;;;17.23;11.03;;;10.00;99.90;;;;;;4954084;28;20516;-75
2021/12/27 16:25:08;;;;;;;15.43;10.33;;;10.00;99.90;;;;;;4953781;29;20587;-75
2021/12/27 16:27:35;;;;;;;18.23;11.73;;;9.90;99.90;;;;;;4954076;28;20536;-75
2021/12/27 16:30:02;;;;;;;18.40;12.10;;;9.90;99.90;;;;;;4953572;29;20493;-75
2021/12/27 16:32:29;;;;;;;18.13;10.90;;;9.90;99.90;;;;;;4954067;29;20488;-75
2021/12/27 16:34:56;;;;;;;17.93;11.73;;;9.80;99.90;;;;;;4953846;29;20516;-75
2021/12/27 16:37:23;;;;;;;18.97;11.43;;;9.80;99.90;;;;;;4953988;29;20464;-75
2021/12/27 16:39:53;;;;;;;17.87;11.23;;;9.80;99.90;;;;;;4953602;29;20535;-75
2021/12/27 16:42:20;;;;;;;19.20;11.03;;;9.80;99.90;;;;;;4953718;29;20453;-75
2021/12/27 16:44:47;;;;;;;19.87;11.60;;;9.80;99.90;;;;;;4953841;29;20512;-75
2021/12/27 16:47:14;;;;;;;19.23;11.30;;;9.70;99.90;;;;;;4953915;29;20512;-75
2021/12/27 16:49:41;;;;;;;17.37;10.70;;;9.70;99.90;;;;;;4953462;29;21023;-75
2021/12/27 16:52:09;;;;;;;20.47;11.07;;;9.70;99.90;;;;;;4953702;28;20532;-75
2021/12/27 16:54:36;;;;;;;16.20;11.17;;;9.70;99.90;;;;;;4953601;29;20468;-75
2021/12/27 16:57:07;;;;;;;17.93;11.50;;;9.70;99.90;;;;;;4953426;29;20548;-76
2021/12/27 16:59:35;;;;;;;21.20;11.87;;;9.60;99.90;;;;;;4953434;29;20529;-76
2021/12/27 17:02:02;;;;;;;18.30;12.27;;;9.60;99.90;;;;;;4953861;29;20484;-75
2021/12/27 17:04:29;;;;;;;17.03;11.40;;;9.60;99.90;;;;;;4953716;29;20484;-75
2021/12/27 17:06:56;;;;;;;17.60;11.50;;;9.60;99.90;;;;;;4955129;28;20497;-75
2021/12/27 17:09:23;;;;;;;19.73;12.30;;;9.60;99.90;;;;;;4957345;29;20531;-75
2021/12/27 17:11:50;;;;;;;18.97;11.80;;;9.60;99.90;;;;;;4956258;29;20536;-75
2021/12/27 17:14:20;;;;;;;14.90;11.00;;;9.50;99.90;;;;;;4955348;29;21024;-67
2021/12/27 17:16:47;;;;;;;22.47;12.73;;;9.60;99.90;;;;;;4990557;23;20495;-72
2021/12/27 17:19:16;;;;;;;21.00;13.37;;;9.50;99.90;;;;;;4981919;28;20498;-72
2021/12/27 17:21:43;;;;;;;22.10;15.70;;;9.50;99.90;;;;;;4981629;28;20487;-74
2021/12/27 17:24:11;;;;;;;28.60;15.83;;;9.50;99.90;;;;;;4980096;28;20531;-74
2021/12/27 17:26:38;;;;;;;23.00;16.60;;;9.50;99.90;;;;;;4973524;28;20505;-74
2021/12/27 17:29:05;;;;;;;22.10;14.37;;;9.50;99.90;;;;;;4961943;29;20483;-74
2021/12/27 17:31:34;;;;;;;22.27;13.77;;;9.50;99.90;;;;;;4960591;29;20544;-74
2021/12/27 17:34:01;;;;;;;22.80;14.73;;;9.50;99.90;;;;;;4960020;29;20460;-74
2021/12/27 17:36:28;;;;;;;18.70;12.40;;;9.50;99.90;;;;;;4959965;28;20508;-74
2021/12/27 17:38:55;;;;;;;15.03;10.80;;;9.40;99.90;;;;;;4956478;28;20971;-74
2021/12/27 17:41:22;;;;;;;14.93;10.30;;;9.40;99.90;;;;;;4956526;29;20548;-75
2021/12/27 17:43:49;;;;;;;13.73;9.50;;;9.40;99.90;;;;;;4956053;29;20832;-75
2021/12/27 17:46:16;;;;;;;13.27;10.40;;;9.40;99.90;;;;;;4955911;28;20572;-74
2021/12/27 17:48:44;;;;;;;15.80;10.97;;;9.40;99.90;;;;;;4955751;29;20508;-75
2021/12/27 17:51:11;;;;;;;18.03;11.30;;;9.40;99.90;;;;;;4955715;29;20539;-75